createdAt,value
2018-04-22T00:00:49.972Z,35.07
2018-04-22T00:03:24.550Z,31.50
2018-04-22T00:06:00.006Z,33.40
2018-04-22T00:08:35.534Z,31.03
2018-04-22T00:11:10.614Z,28.93
2018-04-22T00:13:46.006Z,28.63
2018-04-22T00:16:20.593Z,28.97
2018-04-22T00:18:55.207Z,29.57
2018-04-22T00:21:29.833Z,30.23
2018-04-22T00:24:04.402Z,28.40
2018-04-22T00:26:39.087Z,30.90
2018-04-22T00:29:13.685Z,29.90
2018-04-22T00:31:48.470Z,31.23
2018-04-22T00:34:23.344Z,30.43
2018-04-22T00:36:58.010Z,28.83
2018-04-22T00:39:33.391Z,31.47
2018-04-22T00:42:08.002Z,30.47
2018-04-22T00:44:42.806Z,27.40
2018-04-22T00:47:17.337Z,29.80
2018-04-22T00:49:51.890Z,27.47
2018-04-22T00:52:27.439Z,27.73
2018-04-22T00:55:02.095Z,26.83
2018-04-22T00:57:36.812Z,35.73
2018-04-22T01:00:11.405Z,27.60
2018-04-22T01:02:46.024Z,28.97
2018-04-22T01:05:21.012Z,28.37
2018-04-22T01:07:55.741Z,32.10
2018-04-22T01:10:31.035Z,28.03
2018-04-22T01:13:05.813Z,31.90
2018-04-22T01:15:40.778Z,28.97
2018-04-22T01:18:15.325Z,28.70
2018-04-22T01:20:50.073Z,28.63
2018-04-22T01:23:24.808Z,31.00
2018-04-22T01:25:59.562Z,29.00
2018-04-22T01:28:34.146Z,31.60
2018-04-22T01:31:08.803Z,35.83
2018-04-22T01:33:43.558Z,29.80
2018-04-22T01:36:18.185Z,31.50
2018-04-22T01:38:52.973Z,31.90
2018-04-22T01:41:27.668Z,33.47
2018-04-22T01:44:02.340Z,31.20
2018-04-22T01:46:37.806Z,31.30
2018-04-22T01:49:12.364Z,31.73
2018-04-22T01:51:47.190Z,28.40
2018-04-22T01:54:21.908Z,32.10
2018-04-22T01:56:56.886Z,34.37
2018-04-22T01:59:31.604Z,29.70
2018-04-22T02:02:06.299Z,32.50
2018-04-22T02:04:40.960Z,35.80
2018-04-22T02:07:15.651Z,29.03
2018-04-22T02:09:50.395Z,34.23
2018-04-22T02:12:25.025Z,32.17
2018-04-22T02:14:59.667Z,27.80
2018-04-22T02:17:34.367Z,30.90
2018-04-22T02:20:09.087Z,30.67
2018-04-22T02:22:43.834Z,34.60
2018-04-22T02:25:18.550Z,31.10
2018-04-22T02:27:53.974Z,30.37
2018-04-22T02:30:28.506Z,32.13
2018-04-22T02:33:03.414Z,31.33
2018-04-22T02:35:38.881Z,30.07
2018-04-22T02:38:13.530Z,29.33
2018-04-22T02:40:48.372Z,29.13
2018-04-22T02:43:24.023Z,29.13
2018-04-22T02:45:59.460Z,36.93
2018-04-22T02:48:34.042Z,36.13
2018-04-22T02:51:08.826Z,35.27
2018-04-22T02:53:43.395Z,34.20
2018-04-22T02:56:18.021Z,29.20
2018-04-22T02:58:52.661Z,35.50
2018-04-22T03:01:27.380Z,33.63
2018-04-22T03:04:01.954Z,33.93
2018-04-22T03:06:36.614Z,30.30
2018-04-22T03:09:11.370Z,30.20
2018-04-22T03:11:45.945Z,34.93
2018-04-22T03:14:20.553Z,31.63
2018-04-22T03:16:55.370Z,29.37
2018-04-22T03:19:29.860Z,30.77
2018-04-22T03:22:04.584Z,31.67
2018-04-22T03:24:39.901Z,33.50
2018-04-22T03:27:14.457Z,32.23
2018-04-22T03:29:49.071Z,39.10
2018-04-22T03:32:23.649Z,31.40
2018-04-22T03:34:58.323Z,33.07
2018-04-22T03:37:32.947Z,29.77
2018-04-22T03:40:07.914Z,34.43
2018-04-22T03:42:43.549Z,32.00
2018-04-22T03:45:18.337Z,30.90
2018-04-22T03:47:53.102Z,32.60
2018-04-22T03:50:27.665Z,30.13
2018-04-22T03:53:02.311Z,35.70
2018-04-22T03:55:36.961Z,40.90
2018-04-22T03:58:11.557Z,31.60
2018-04-22T04:00:46.328Z,36.77
2018-04-22T04:03:20.830Z,36.93
2018-04-22T04:05:56.331Z,33.67
2018-04-22T04:08:31.047Z,34.33
2018-04-22T04:11:05.784Z,38.17
2018-04-22T04:13:40.500Z,33.93
2018-04-22T04:16:15.182Z,38.30
2018-04-22T04:19:02.149Z,30.33
2018-04-22T04:21:48.184Z,34.47
2018-04-22T04:24:50.638Z,32.43
2018-04-22T04:27:45.061Z,38.60
2018-04-22T04:30:19.688Z,33.77
2018-04-22T04:32:54.416Z,35.83
2018-04-22T04:35:29.063Z,32.60
2018-04-22T04:38:03.655Z,38.23
2018-04-22T04:40:38.977Z,32.97
2018-04-22T04:43:13.640Z,31.13
2018-04-22T04:45:48.296Z,31.10
2018-04-22T04:48:23.039Z,32.23
2018-04-22T04:50:57.704Z,32.50
2018-04-22T04:53:32.406Z,33.77
2018-04-22T04:56:08.372Z,35.23
2018-04-22T04:58:43.088Z,32.63
2018-04-22T05:01:17.738Z,30.13
2018-04-22T05:03:52.351Z,31.27
2018-04-22T05:06:26.995Z,30.27
2018-04-22T05:09:01.786Z,31.43
2018-04-22T05:11:37.250Z,30.93
2018-04-22T05:14:11.975Z,31.27
2018-04-22T05:16:46.718Z,30.07
2018-04-22T05:19:21.617Z,33.50
2018-04-22T05:21:56.184Z,30.30
2018-04-22T05:24:30.783Z,31.03
2018-04-22T05:27:05.555Z,36.97
2018-04-22T05:29:40.121Z,29.80
2018-04-22T05:32:15.506Z,34.07
2018-04-22T05:34:50.163Z,29.60
2018-04-22T05:37:24.941Z,33.90
2018-04-22T05:39:59.675Z,31.23
2018-04-22T05:42:34.269Z,32.30
2018-04-22T05:45:08.810Z,36.20
2018-04-22T05:47:43.676Z,31.80
2018-04-22T05:50:18.453Z,33.60
2018-04-22T05:52:54.042Z,33.00
2018-04-22T05:55:29.341Z,37.87
2018-04-22T05:58:05.005Z,34.77
2018-04-22T06:00:39.738Z,30.07
2018-04-22T06:03:14.503Z,33.67
2018-04-22T06:05:49.087Z,34.53
2018-04-22T06:08:23.895Z,33.83
2018-04-22T06:10:58.478Z,32.47
2018-04-22T06:13:34.746Z,37.23
2018-04-22T06:16:09.428Z,38.77
2018-04-22T06:18:44.096Z,38.23
2018-04-22T06:21:18.644Z,36.40
2018-04-22T06:23:53.313Z,37.13
2018-04-22T06:26:27.926Z,36.03
2018-04-22T06:29:02.661Z,36.17
2018-04-22T06:31:37.288Z,33.43
2018-04-22T06:34:12.031Z,37.17
2018-04-22T06:36:46.718Z,34.30
2018-04-22T06:39:21.504Z,33.20
2018-04-22T06:41:56.058Z,32.23
2018-04-22T06:44:30.755Z,37.03
2018-04-22T06:47:05.609Z,45.23
2018-04-22T06:49:40.392Z,34.90
2018-04-22T06:52:15.173Z,39.40
2018-04-22T06:54:49.699Z,31.97
2018-04-22T06:57:24.422Z,34.50
2018-04-22T06:59:59.052Z,35.70
2018-04-22T07:02:33.875Z,36.60
2018-04-22T07:05:08.710Z,41.00
2018-04-22T07:07:43.634Z,34.83
2018-04-22T07:10:18.415Z,37.27
2018-04-22T07:12:53.254Z,38.27
2018-04-22T07:15:27.984Z,33.83
2018-04-22T07:18:02.848Z,41.70
2018-04-22T07:20:37.685Z,35.63
2018-04-22T07:23:12.396Z,34.87
2018-04-22T07:25:47.225Z,37.60
2018-04-22T07:28:22.053Z,33.73
2018-04-22T07:30:56.816Z,35.13
2018-04-22T07:33:31.511Z,37.53
2018-04-22T07:36:07.182Z,36.60
2018-04-22T07:38:41.949Z,34.50
2018-04-22T07:41:16.570Z,37.27
2018-04-22T07:43:52.329Z,39.20
2018-04-22T07:46:26.995Z,37.43
2018-04-22T07:49:01.699Z,35.73
2018-04-22T07:51:36.463Z,41.90
2018-04-22T07:54:11.807Z,38.33
2018-04-22T07:56:46.555Z,43.10
2018-04-22T07:59:21.617Z,36.93
2018-04-22T08:01:56.084Z,35.90
2018-04-22T08:04:32.562Z,36.03
2018-04-22T08:07:06.912Z,35.67
2018-04-22T08:09:41.628Z,38.53
2018-04-22T08:12:16.543Z,35.43
2018-04-22T08:14:51.957Z,38.00
2018-04-22T08:17:26.641Z,36.67
2018-04-22T08:20:01.272Z,36.17
2018-04-22T08:22:35.959Z,39.97
2018-04-22T08:25:10.579Z,35.67
2018-04-22T08:27:45.315Z,35.03
2018-04-22T08:30:20.090Z,36.60
2018-04-22T08:32:55.789Z,38.40
2018-04-22T08:35:31.374Z,33.27
2018-04-22T08:38:06.131Z,34.23
2018-04-22T08:40:41.590Z,32.67
2018-04-22T08:43:16.269Z,33.30
2018-04-22T08:45:50.946Z,32.83
2018-04-22T08:48:25.658Z,33.37
2018-04-22T08:51:00.277Z,30.07
2018-04-22T08:53:35.720Z,31.23
2018-04-22T08:56:04.700Z,34.53
2018-04-22T08:58:33.775Z,31.33
2018-04-22T09:01:03.739Z,33.20
2018-04-22T09:03:32.908Z,29.67
2018-04-22T09:06:07.925Z,29.73
2018-04-22T09:08:42.658Z,28.93
2018-04-22T09:11:17.394Z,31.07
2018-04-22T09:13:52.799Z,33.20
2018-04-22T09:16:27.742Z,28.27
2018-04-22T09:19:02.782Z,29.47
2018-04-22T09:21:37.745Z,32.30
2018-04-22T09:24:11.892Z,28.37
2018-04-22T09:26:46.701Z,31.03
2018-04-22T09:29:21.341Z,30.00
2018-04-22T09:31:56.910Z,28.83
2018-04-22T09:34:31.691Z,28.87
2018-04-22T09:37:06.593Z,28.37
2018-04-22T09:39:35.668Z,26.17
2018-04-22T09:42:10.307Z,30.50
2018-04-22T09:44:44.911Z,31.23
2018-04-22T09:47:19.534Z,27.67
2018-04-22T09:49:54.366Z,29.20
2018-04-22T09:52:37.295Z,24.90
2018-04-22T09:55:12.134Z,32.03
2018-04-22T09:57:46.731Z,27.87
2018-04-22T10:00:27.004Z,26.30
2018-04-22T10:03:07.424Z,29.67
2018-04-22T10:05:48.361Z,36.93
2018-04-22T10:08:23.800Z,26.60
2018-04-22T10:10:58.398Z,25.93
2018-04-22T10:13:33.412Z,24.13
2018-04-22T10:16:08.197Z,26.07
2018-04-22T10:18:43.155Z,26.77
2018-04-22T10:21:17.924Z,24.80
2018-04-22T10:23:46.924Z,25.67
2018-04-22T10:26:15.912Z,19.20
2018-04-22T10:28:44.915Z,21.23
2018-04-22T10:31:14.011Z,18.93
2018-04-22T10:33:43.411Z,17.87
2018-04-22T10:36:13.635Z,21.80
2018-04-22T10:38:49.157Z,19.67
2018-04-22T10:41:23.842Z,18.37
2018-04-22T10:43:58.461Z,17.80
2018-04-22T10:46:33.191Z,17.70
2018-04-22T10:49:07.844Z,18.33
2018-04-22T10:51:42.496Z,20.77
2018-04-22T10:54:11.923Z,13.73
2018-04-22T10:56:46.573Z,18.83
2018-04-22T10:59:21.411Z,16.93
2018-04-22T11:01:56.057Z,19.80
2018-04-22T11:04:30.788Z,17.33
2018-04-22T11:07:00.971Z,18.80
2018-04-22T11:09:30.334Z,12.13
2018-04-22T11:11:59.555Z,17.20
2018-04-22T11:14:28.524Z,17.03
2018-04-22T11:16:57.592Z,12.43
2018-04-22T11:19:27.159Z,17.13
2018-04-22T11:21:56.234Z,16.80
2018-04-22T11:24:25.356Z,13.77
2018-04-22T11:26:54.809Z,14.30
2018-04-22T11:29:25.069Z,18.27
2018-04-22T11:31:54.265Z,15.10
2018-04-22T11:34:23.423Z,11.47
2018-04-22T11:36:53.296Z,21.20
2018-04-22T11:39:28.122Z,14.80
2018-04-22T11:42:03.552Z,17.10
2018-04-22T11:44:38.301Z,19.07
2018-04-22T11:47:13.799Z,12.77
2018-04-22T11:49:48.500Z,20.27
2018-04-22T11:52:23.922Z,20.63
2018-04-22T11:54:53.839Z,16.50
2018-04-22T11:57:33.862Z,11.80
2018-04-22T12:00:08.734Z,12.80
2018-04-22T12:02:44.207Z,15.53
2018-04-22T12:05:18.805Z,16.20
2018-04-22T12:07:53.441Z,15.53
2018-04-22T12:10:28.225Z,12.70
2018-04-22T12:13:03.014Z,11.23
2018-04-22T12:15:37.800Z,14.90
2018-04-22T12:18:12.408Z,13.20
2018-04-22T12:20:47.198Z,18.07
2018-04-22T12:23:16.401Z,15.53
2018-04-22T12:25:51.295Z,13.20
2018-04-22T12:28:25.994Z,11.60
2018-04-22T12:31:00.715Z,13.07
2018-04-22T12:33:35.319Z,11.50
2018-04-22T12:36:10.014Z,10.83
2018-04-22T12:38:39.395Z,12.00
2018-04-22T12:41:14.916Z,12.00
2018-04-22T12:43:49.607Z,18.77
2018-04-22T12:46:24.419Z,13.20
2018-04-22T12:48:59.972Z,12.63
2018-04-22T12:51:34.701Z,10.00
2018-04-22T12:54:09.443Z,16.20
2018-04-22T12:56:38.731Z,13.50
2018-04-22T12:59:13.706Z,10.70
2018-04-22T13:01:48.543Z,13.30
2018-04-22T13:04:23.423Z,9.43
2018-04-22T13:06:58.331Z,15.60
2018-04-22T13:09:32.906Z,11.10
2018-04-22T13:12:07.581Z,13.70
2018-04-22T13:14:43.103Z,11.30
2018-04-22T13:17:17.776Z,11.10
2018-04-22T13:19:52.315Z,14.40
2018-04-22T13:22:26.970Z,16.77
2018-04-22T13:24:57.008Z,19.30
2018-04-22T13:27:31.686Z,18.43
2018-04-22T13:30:06.350Z,22.23
2018-04-22T13:32:41.069Z,10.97
2018-04-22T13:35:15.739Z,9.83
2018-04-22T13:37:50.886Z,12.03
2018-04-22T13:40:25.671Z,10.60
2018-04-22T13:43:00.454Z,9.47
2018-04-22T13:45:35.261Z,9.97
2018-04-22T13:48:10.153Z,14.20
2018-04-22T13:50:44.874Z,12.90
2018-04-22T13:53:20.243Z,14.20
2018-04-22T13:55:54.826Z,17.57
2018-04-22T13:58:29.514Z,14.17
2018-04-22T14:01:04.172Z,14.40
2018-04-22T14:03:38.935Z,19.37
2018-04-22T14:06:14.254Z,20.00
2018-04-22T14:08:49.952Z,14.90
2018-04-22T14:11:24.544Z,16.83
2018-04-22T14:14:00.391Z,22.63
2018-04-22T14:16:35.651Z,21.53
2018-04-22T14:19:10.294Z,19.83
2018-04-22T14:21:39.422Z,18.87
2018-04-22T14:24:14.117Z,17.50
2018-04-22T14:26:48.766Z,16.80
2018-04-22T14:29:23.417Z,22.50
2018-04-22T14:31:58.962Z,16.50
2018-04-22T14:34:33.465Z,15.20
2018-04-22T14:37:08.295Z,18.13
2018-04-22T14:39:44.364Z,20.50
2018-04-22T14:42:19.421Z,18.53
2018-04-22T14:45:05.300Z,20.63
2018-04-22T14:47:34.458Z,21.87
2018-04-22T14:50:09.023Z,15.73
2018-04-22T14:52:43.731Z,23.73
2018-04-22T14:55:18.393Z,17.93
2018-04-22T14:57:53.389Z,19.23
2018-04-22T15:00:28.329Z,15.40
2018-04-22T15:03:03.866Z,14.43
2018-04-22T15:05:38.599Z,11.67
2018-04-22T15:08:07.738Z,17.27
2018-04-22T15:10:42.295Z,9.20
2018-04-22T15:13:16.915Z,8.33
2018-04-22T15:15:52.944Z,10.30
2018-04-22T15:18:28.392Z,10.60
2018-04-22T15:21:08.316Z,8.50
2018-04-22T15:23:42.951Z,8.43
2018-04-22T15:26:17.511Z,8.00
2018-04-22T15:28:52.085Z,11.57
2018-04-22T15:31:26.683Z,6.90
2018-04-22T15:34:01.486Z,8.20
2018-04-22T15:36:36.154Z,6.97
2018-04-22T15:39:10.896Z,10.20
2018-04-22T15:41:44.162Z,9.23
2018-04-22T15:44:18.822Z,10.33
2018-04-22T15:46:53.548Z,13.77
2018-04-22T15:49:28.173Z,9.53
2018-04-22T15:52:02.756Z,12.10
2018-04-22T15:54:38.209Z,7.87
2018-04-22T15:57:12.764Z,24.07
2018-04-22T15:59:47.456Z,12.90
2018-04-22T16:02:23.447Z,8.50
2018-04-22T16:04:58.067Z,16.20
2018-04-22T16:07:32.826Z,10.13
2018-04-22T16:10:07.501Z,16.07
2018-04-22T16:12:42.195Z,20.90
2018-04-22T16:15:17.815Z,12.00
2018-04-22T16:17:52.534Z,18.40
2018-04-22T16:20:27.329Z,14.57
2018-04-22T16:23:01.853Z,13.77
2018-04-22T16:25:37.363Z,19.07
2018-04-22T16:28:12.873Z,12.23
2018-04-22T16:30:47.516Z,8.80
2018-04-22T16:33:22.953Z,13.07
2018-04-22T16:35:57.686Z,11.07
2018-04-22T16:38:32.471Z,13.63
2018-04-22T16:41:07.560Z,11.30
2018-04-22T16:43:43.106Z,11.77
2018-04-22T16:46:17.925Z,12.67
2018-04-22T16:48:52.633Z,11.03
2018-04-22T16:51:27.483Z,10.40
2018-04-22T16:54:02.783Z,10.03
2018-04-22T16:56:37.465Z,15.97
2018-04-22T16:59:12.111Z,13.87
2018-04-22T17:01:47.614Z,11.10
2018-04-22T17:04:23.130Z,12.10
2018-04-22T17:06:57.893Z,17.40
2018-04-22T17:09:32.455Z,15.57
2018-04-22T17:12:07.856Z,14.70
2018-04-22T17:14:42.459Z,11.17
2018-04-22T17:17:17.798Z,15.73
2018-04-22T17:19:52.500Z,12.90
2018-04-22T17:22:27.252Z,12.43
2018-04-22T17:25:02.579Z,16.17
2018-04-22T17:27:38.065Z,14.83
2018-04-22T17:30:13.507Z,16.20
2018-04-22T17:32:48.908Z,12.87
2018-04-22T17:35:23.667Z,13.50
2018-04-22T17:37:58.304Z,13.07
2018-04-22T17:40:33.393Z,13.73
2018-04-22T17:43:08.948Z,12.10
2018-04-22T17:45:44.320Z,15.90
2018-04-22T17:48:19.020Z,11.30
2018-04-22T17:50:54.371Z,14.00
2018-04-22T17:53:28.819Z,17.73
2018-04-22T17:56:04.629Z,14.67
2018-04-22T17:58:39.187Z,14.93
2018-04-22T18:01:13.858Z,13.90
2018-04-22T18:03:48.433Z,14.43
2018-04-22T18:06:17.727Z,15.40
2018-04-22T18:08:53.245Z,23.63
2018-04-22T18:11:28.042Z,14.80
2018-04-22T18:14:02.670Z,18.40
2018-04-22T18:16:37.467Z,18.57
2018-04-22T18:19:12.171Z,14.20
2018-04-22T18:21:47.020Z,14.13
2018-04-22T18:24:21.847Z,16.20
2018-04-22T18:26:56.462Z,20.50
2018-04-22T18:29:31.473Z,16.70
2018-04-22T18:32:06.116Z,11.93
2018-04-22T18:34:40.862Z,14.70
2018-04-22T18:37:15.383Z,11.87
2018-04-22T18:39:50.002Z,14.33
2018-04-22T18:42:24.712Z,11.50
2018-04-22T18:44:59.251Z,12.10
2018-04-22T18:47:34.498Z,13.07
2018-04-22T18:50:10.071Z,13.80
2018-04-22T18:52:45.491Z,10.77
2018-04-22T18:55:14.807Z,17.57
2018-04-22T18:57:43.723Z,18.03
2018-04-22T19:00:12.677Z,17.90
2018-04-22T19:02:41.920Z,12.83
2018-04-22T19:05:11.881Z,13.07
2018-04-22T19:07:41.299Z,16.30
2018-04-22T19:10:10.475Z,13.13
2018-04-22T19:12:39.883Z,11.80
2018-04-22T19:15:09.307Z,19.47
2018-04-22T19:17:38.680Z,15.80
2018-04-22T19:20:07.694Z,13.90
2018-04-22T19:22:36.775Z,17.73
2018-04-22T19:25:05.927Z,14.03
2018-04-22T19:27:35.211Z,17.13
2018-04-22T19:30:10.312Z,13.20
2018-04-22T19:32:45.733Z,16.80
2018-04-22T19:35:20.388Z,21.47
2018-04-22T19:37:55.018Z,15.13
2018-04-22T19:40:29.604Z,21.17
2018-04-22T19:43:04.252Z,12.90
2018-04-22T19:45:38.900Z,16.13
2018-04-22T19:48:13.703Z,17.30
2018-04-22T19:50:49.320Z,20.00
2018-04-22T19:53:24.077Z,15.77
2018-04-22T19:55:58.910Z,13.53
2018-04-22T19:58:27.999Z,13.40
2018-04-22T20:01:02.737Z,13.80
2018-04-22T20:03:37.420Z,17.70
2018-04-22T20:06:12.059Z,18.50
2018-04-22T20:08:46.683Z,13.80
2018-04-22T20:11:21.315Z,17.80
2018-04-22T20:13:55.921Z,15.77
2018-04-22T20:16:30.698Z,13.67
2018-04-22T20:19:05.316Z,17.00
2018-04-22T20:21:40.096Z,21.67
2018-04-22T20:24:14.874Z,18.00
2018-04-22T20:26:49.617Z,19.97
2018-04-22T20:29:24.163Z,18.53
2018-04-22T20:31:58.819Z,19.20
2018-04-22T20:34:33.444Z,20.00
2018-04-22T20:37:08.110Z,19.17
2018-04-22T20:39:43.396Z,21.60
2018-04-22T20:42:17.978Z,23.43
2018-04-22T20:44:52.478Z,19.30
2018-04-22T20:47:27.412Z,21.43
2018-04-22T20:50:00.510Z,20.43
2018-04-22T20:52:35.959Z,21.53
2018-04-22T20:55:10.959Z,20.27
2018-04-22T20:57:46.285Z,17.73
2018-04-22T21:00:20.891Z,20.13
2018-04-22T21:02:56.140Z,23.33
2018-04-22T21:05:31.016Z,22.17
2018-04-22T21:08:05.757Z,22.40
2018-04-22T21:10:41.376Z,21.30
2018-04-22T21:13:16.013Z,23.17
2018-04-22T21:15:50.734Z,22.93
2018-04-22T21:18:25.781Z,24.73
2018-04-22T21:21:00.494Z,29.63
2018-04-22T21:23:30.387Z,22.60
2018-04-22T21:26:04.982Z,22.70
2018-04-22T21:28:40.479Z,23.80
2018-04-22T21:31:15.237Z,22.27
2018-04-22T21:33:50.641Z,26.43
2018-04-22T21:36:26.131Z,24.70
2018-04-22T21:39:00.872Z,29.73
2018-04-22T21:41:35.506Z,26.13
2018-04-22T21:44:10.164Z,26.70
2018-04-22T21:46:44.996Z,23.90
2018-04-22T21:49:19.589Z,24.37
2018-04-22T21:51:54.237Z,24.50
2018-04-22T21:54:28.807Z,28.20
2018-04-22T21:57:04.200Z,24.13
2018-04-22T21:59:38.821Z,28.43
2018-04-22T22:02:13.561Z,26.30
2018-04-22T22:04:48.319Z,26.70
2018-04-22T22:07:22.989Z,23.10
2018-04-22T22:09:57.631Z,24.93
2018-04-22T22:12:32.183Z,26.57
2018-04-22T22:15:06.763Z,32.03
2018-04-22T22:17:41.529Z,22.20
2018-04-22T22:20:16.085Z,26.03
2018-04-22T22:22:50.872Z,28.43
2018-04-22T22:25:25.483Z,26.90
2018-04-22T22:28:00.044Z,23.17
2018-04-22T22:30:34.641Z,27.23
2018-04-22T22:33:09.279Z,30.30
2018-04-22T22:35:43.958Z,27.40
2018-04-22T22:38:18.599Z,26.03
2018-04-22T22:40:53.192Z,24.37
2018-04-22T22:43:27.869Z,27.37
2018-04-22T22:46:03.276Z,33.03
2018-04-22T22:48:38.740Z,26.57
2018-04-22T22:51:13.515Z,26.57
2018-04-22T22:53:48.911Z,31.53
2018-04-22T22:56:24.111Z,28.13
2018-04-22T22:58:58.689Z,34.90
2018-04-22T23:01:33.247Z,31.63
2018-04-22T23:04:07.891Z,31.40
2018-04-22T23:06:43.230Z,31.20
2018-04-22T23:09:18.007Z,29.27
2018-04-22T23:11:52.485Z,29.27
2018-04-22T23:14:27.155Z,27.83
2018-04-22T23:17:01.910Z,27.03
2018-04-22T23:19:31.073Z,32.90
2018-04-22T23:22:05.682Z,36.63
2018-04-22T23:24:40.268Z,34.33
2018-04-22T23:27:15.630Z,32.73
2018-04-22T23:29:45.536Z,31.83
2018-04-22T23:32:20.124Z,33.73
2018-04-22T23:34:54.706Z,30.60
2018-04-22T23:37:29.439Z,29.67
2018-04-22T23:40:04.186Z,30.00
2018-04-22T23:42:38.765Z,42.50
2018-04-22T23:45:13.430Z,30.13
2018-04-22T23:47:47.980Z,29.00
2018-04-22T23:50:23.454Z,30.70
2018-04-22T23:52:58.146Z,32.50
2018-04-22T23:55:33.649Z,30.33
2018-04-22T23:58:08.953Z,34.80
